Time;durP1;ratioP1;P1;durP2;ratioP2;P2;SDS_P1;SDS_P2;PMS_P1;PMS_P2;Temp;Humidity;BMP_temperature;BMP_pressure;BME280_temperature;BME280_humidity;BME280_pressure;Samples;Min_cycle;Max_cycle;Signal;HPM_P1;HPM_P2
2023/04/01 00:00:09;;;;;;;18.30;13.60;;;;;;;;;;108621;1264;57537;-50
2023/04/01 00:02:41;;;;;;;17.30;14.10;;;;;;;;;;108721;1260;60541;-50
2023/04/01 00:06:45;;;;;;;20.80;15.30;;;;;;;;;;102494;1290;599551;-48
2023/04/01 00:09:13;;;;;;;19.60;13.60;;;;;;;;;;108541;1267;56892;-49
2023/04/01 00:11:45;;;;;;;15.30;12.30;;;;;;;;;;108511;1264;57092;-50
2023/04/01 00:14:13;;;;;;;15.90;13.90;;;;;;;;;;105044;1265;60442;-50
2023/04/01 00:16:46;;;;;;;17.30;13.00;;;;;;;;;;104731;1268;58972;-49
2023/04/01 00:19:15;;;;;;;17.30;14.90;;;;;;;;;;108300;1265;143544;-51
2023/04/01 00:21:43;;;;;;;15.20;13.70;;;;;;;;;;105447;1267;58950;-49
2023/04/01 00:24:11;;;;;;;16.80;13.90;;;;;;;;;;104876;1266;59016;-47
2023/04/01 00:26:42;;;;;;;17.90;14.10;;;;;;;;;;104955;1266;60323;-50
2023/04/01 00:29:11;;;;;;;18.40;14.80;;;;;;;;;;108500;1263;57396;-50
2023/04/01 00:31:39;;;;;;;20.80;14.30;;;;;;;;;;106135;1264;60868;-49
2023/04/01 00:34:08;;;;;;;19.90;15.00;;;;;;;;;;108627;1263;58869;-51
2023/04/01 00:36:38;;;;;;;18.50;16.10;;;;;;;;;;108532;1263;57808;-51
2023/04/01 00:39:06;;;;;;;20.30;15.90;;;;;;;;;;108595;1263;61321;-49
2023/04/01 00:41:35;;;;;;;17.90;15.60;;;;;;;;;;108646;1263;57437;-49
2023/04/01 00:44:15;;;;;;;21.00;17.00;;;;;;;;;;108501;1263;59798;-49
2023/04/01 00:46:43;;;;;;;23.20;16.90;;;;;;;;;;105259;1264;59519;-49
2023/04/01 00:49:11;;;;;;;23.00;16.00;;;;;;;;;;104874;1263;59550;-47
2023/04/01 00:51:39;;;;;;;17.60;14.80;;;;;;;;;;105599;1264;61308;-49
2023/04/01 00:54:07;;;;;;;21.30;15.30;;;;;;;;;;104810;1269;59664;-49
2023/04/01 00:56:40;;;;;;;18.20;15.10;;;;;;;;;;104836;1263;61374;-49
2023/04/01 00:59:13;;;;;;;22.50;16.00;;;;;;;;;;105232;1264;59646;-46
2023/04/01 01:01:41;;;;;;;19.90;15.70;;;;;;;;;;104776;1264;59688;-48
2023/04/01 01:04:30;;;;;;;18.30;16.00;;;;;;;;;;104763;1264;61556;-48
2023/04/01 01:07:10;;;;;;;22.60;14.80;;;;;;;;;;105123;1264;59587;-50
2023/04/01 01:09:41;;;;;;;21.20;16.80;;;;;;;;;;104835;1266;60739;-49
2023/04/01 01:12:19;;;;;;;19.90;16.20;;;;;;;;;;104672;1269;59746;-49
2023/04/01 01:14:51;;;;;;;21.30;14.30;;;;;;;;;;104694;1267;59593;-49
2023/04/01 01:17:19;;;;;;;19.40;15.00;;;;;;;;;;105363;1268;61374;-48
2023/04/01 01:19:53;;;;;;;21.90;15.10;;;;;;;;;;105295;1264;59737;-48
2023/04/01 01:22:24;;;;;;;19.60;16.10;;;;;;;;;;104854;1264;60821;-48
2023/04/01 01:24:52;;;;;;;18.20;15.10;;;;;;;;;;104875;1264;59659;-49
2023/04/01 01:27:20;;;;;;;21.70;16.00;;;;;;;;;;104942;1270;59628;-48
2023/04/01 01:30:00;;;;;;;23.10;18.00;;;;;;;;;;105840;1264;61319;-49
2023/04/01 01:32:34;;;;;;;20.10;16.10;;;;;;;;;;105820;1266;59721;-48
2023/04/01 01:35:22;;;;;;;19.60;14.80;;;;;;;;;;104776;1264;60687;-48
2023/04/01 01:37:51;;;;;;;20.70;15.80;;;;;;;;;;104737;1270;59541;-49
2023/04/01 01:40:20;;;;;;;21.30;15.70;;;;;;;;;;105507;1257;59714;-50
2023/04/01 01:42:50;;;;;;;21.20;15.10;;;;;;;;;;105339;1261;59998;-49
2023/04/01 01:45:19;;;;;;;20.70;15.40;;;;;;;;;;105564;1258;59663;-51
2023/04/01 01:47:48;;;;;;;15.00;13.40;;;;;;;;;;105485;1257;59664;-50
2023/04/01 01:50:16;;;;;;;19.20;15.60;;;;;;;;;;105212;1259;59713;-49
2023/04/01 01:52:44;;;;;;;21.70;15.70;;;;;;;;;;105204;1257;59656;-49
2023/04/01 01:55:31;;;;;;;23.40;15.90;;;;;;;;;;106353;1260;62358;-49
2023/04/01 01:58:19;;;;;;;21.40;16.70;;;;;;;;;;106212;1257;59629;-47
2023/04/01 02:01:01;;;;;;;21.10;15.40;;;;;;;;;;105613;1258;60366;-48
2023/04/01 02:03:30;;;;;;;17.00;13.80;;;;;;;;;;105541;1257;59647;-50
2023/04/01 02:05:59;;;;;;;17.90;15.00;;;;;;;;;;105583;1257;59608;-50
2023/04/01 02:08:32;;;;;;;15.90;13.70;;;;;;;;;;105406;1257;60235;-49
2023/04/01 02:11:01;;;;;;;19.20;15.90;;;;;;;;;;105589;1257;59522;-46
2023/04/01 02:13:36;;;;;;;19.60;15.30;;;;;;;;;;105984;1260;60851;-49
2023/04/01 02:16:07;;;;;;;18.80;15.30;;;;;;;;;;105682;1263;59639;-48
2023/04/01 02:18:35;;;;;;;17.20;13.80;;;;;;;;;;106062;1255;59665;-50
2023/04/01 02:21:04;;;;;;;17.90;14.90;;;;;;;;;;105419;1260;61609;-50
2023/04/01 02:23:34;;;;;;;17.60;14.30;;;;;;;;;;105446;1257;59538;-48
2023/04/01 02:26:03;;;;;;;16.60;14.30;;;;;;;;;;105399;1260;59752;-48
2023/04/01 02:28:32;;;;;;;17.10;13.30;;;;;;;;;;105365;1260;59611;-49
2023/04/01 02:31:02;;;;;;;17.20;14.70;;;;;;;;;;105517;1257;59602;-49
2023/04/01 02:33:31;;;;;;;19.30;14.60;;;;;;;;;;105438;1260;60063;-49
2023/04/01 02:36:00;;;;;;;17.80;14.40;;;;;;;;;;106442;1261;59963;-47
2023/04/01 02:38:28;;;;;;;17.00;14.20;;;;;;;;;;107323;1256;61687;-49
2023/04/01 02:41:00;;;;;;;15.60;13.90;;;;;;;;;;105444;1261;59608;-49
2023/04/01 02:43:28;;;;;;;19.50;14.70;;;;;;;;;;105624;1254;59589;-49
2023/04/01 02:45:59;;;;;;;18.50;14.90;;;;;;;;;;105517;1255;61450;-49
2023/04/01 02:48:27;;;;;;;18.30;14.80;;;;;;;;;;105600;1254;59634;-49
2023/04/01 02:50:55;;;;;;;18.10;14.30;;;;;;;;;;105800;1255;60770;-48
2023/04/01 02:53:25;;;;;;;19.00;15.90;;;;;;;;;;105636;1263;60053;-49
2023/04/01 02:55:53;;;;;;;20.30;16.40;;;;;;;;;;105478;1260;61039;-49
2023/04/01 02:58:21;;;;;;;19.10;14.80;;;;;;;;;;108958;1254;61375;-50
2023/04/01 03:00:49;;;;;;;16.00;13.60;;;;;;;;;;108961;1258;57954;-50
2023/04/01 03:03:18;;;;;;;16.60;14.80;;;;;;;;;;108927;1254;60526;-50
2023/04/01 03:05:49;;;;;;;19.20;14.90;;;;;;;;;;108911;1254;59154;-50
2023/04/01 03:08:17;;;;;;;21.40;16.30;;;;;;;;;;109080;1256;57414;-50
2023/04/01 03:10:45;;;;;;;23.80;14.30;;;;;;;;;;109060;1255;61039;-50
2023/04/01 03:13:12;;;;;;;19.20;15.10;;;;;;;;;;109147;1255;57726;-51
2023/04/01 03:15:41;;;;;;;17.50;14.00;;;;;;;;;;108912;1254;61007;-50
2023/04/01 03:18:09;;;;;;;18.00;15.70;;;;;;;;;;108897;1254;57509;-50
2023/04/01 03:20:40;;;;;;;19.90;15.60;;;;;;;;;;109034;1256;57367;-50
2023/04/01 03:23:08;;;;;;;18.30;15.50;;;;;;;;;;109113;1254;61741;-50
2023/04/01 03:25:36;;;;;;;17.50;14.30;;;;;;;;;;108959;1254;57357;-50
2023/04/01 03:28:05;;;;;;;14.40;12.90;;;;;;;;;;108918;1254;59723;-50
2023/04/01 03:30:33;;;;;;;21.10;16.00;;;;;;;;;;109091;1256;57550;-50
2023/04/01 03:33:03;;;;;;;21.60;14.50;;;;;;;;;;108857;1254;57538;-48
2023/04/01 03:35:32;;;;;;;15.60;14.00;;;;;;;;;;109099;1254;61205;-50
2023/04/01 03:38:01;;;;;;;19.30;14.10;;;;;;;;;;108999;1254;57621;-50
2023/04/01 03:40:30;;;;;;;18.10;13.50;;;;;;;;;;108933;1254;60503;-49
2023/04/01 03:42:58;;;;;;;14.70;12.90;;;;;;;;;;108880;1258;57412;-50
2023/04/01 03:45:27;;;;;;;16.20;12.80;;;;;;;;;;109042;1256;58283;-50
2023/04/01 03:47:55;;;;;;;16.20;13.70;;;;;;;;;;106432;1256;60069;-47
2023/04/01 03:50:23;;;;;;;16.40;13.40;;;;;;;;;;105388;1259;59605;-48
2023/04/01 03:52:53;;;;;;;14.80;12.10;;;;;;;;;;105479;1257;60806;-49
2023/04/01 03:55:21;;;;;;;14.00;12.20;;;;;;;;;;107117;1260;59638;-48
2023/04/01 03:57:50;;;;;;;16.60;12.60;;;;;;;;;;106205;1256;59995;-48
2023/04/01 04:00:19;;;;;;;14.40;12.80;;;;;;;;;;106409;1257;61471;-48
2023/04/01 04:02:47;;;;;;;17.30;12.80;;;;;;;;;;105589;1260;59705;-49
2023/04/01 04:05:20;;;;;;;15.20;12.60;;;;;;;;;;106344;1257;60482;-50
2023/04/01 04:07:48;;;;;;;12.90;11.60;;;;;;;;;;105420;1260;59689;-48
2023/04/01 04:10:16;;;;;;;16.00;13.10;;;;;;;;;;105745;1257;59640;-47
2023/04/01 04:12:44;;;;;;;12.80;10.90;;;;;;;;;;106055;1257;61341;-48
2023/04/01 04:15:12;;;;;;;15.10;12.00;;;;;;;;;;105586;1260;59647;-48
2023/04/01 04:17:41;;;;;;;15.50;13.50;;;;;;;;;;106008;1257;60773;-48
2023/04/01 04:20:10;;;;;;;15.60;13.60;;;;;;;;;;105464;1260;60346;-49
2023/04/01 04:22:39;;;;;;;18.80;13.40;;;;;;;;;;105293;1257;60521;-48
2023/04/01 04:25:08;;;;;;;16.70;13.50;;;;;;;;;;106620;1257;60797;-47
2023/04/01 04:27:36;;;;;;;14.00;12.00;;;;;;;;;;105458;1260;60556;-49
2023/04/01 04:30:09;;;;;;;16.70;12.40;;;;;;;;;;106155;1257;60609;-48
2023/04/01 04:32:38;;;;;;;14.90;12.00;;;;;;;;;;105952;1259;60533;-49
2023/04/01 04:35:06;;;;;;;13.00;10.90;;;;;;;;;;105531;1256;60701;-49
2023/04/01 04:37:35;;;;;;;15.00;11.60;;;;;;;;;;105783;1258;61202;-50
2023/04/01 04:40:04;;;;;;;15.00;11.50;;;;;;;;;;105963;1254;62690;-46
2023/04/01 04:42:32;;;;;;;13.20;10.70;;;;;;;;;;106537;1251;60940;-47
2023/04/01 04:45:05;;;;;;;15.60;12.50;;;;;;;;;;106710;1255;60231;-49
2023/04/01 04:47:33;;;;;;;14.90;11.90;;;;;;;;;;105731;1251;60789;-49
2023/04/01 04:50:02;;;;;;;12.80;11.00;;;;;;;;;;105531;1251;60932;-49
2023/04/01 04:52:30;;;;;;;16.60;13.40;;;;;;;;;;105641;1254;60820;-48
2023/04/01 04:54:58;;;;;;;14.80;12.20;;;;;;;;;;105621;1255;60607;-48
2023/04/01 04:57:26;;;;;;;22.40;15.80;;;;;;;;;;106272;1256;60622;-48
2023/04/01 04:59:56;;;;;;;18.30;14.00;;;;;;;;;;105889;1251;60416;-49
2023/04/01 05:02:40;;;;;;;14.70;11.90;;;;;;;;;;105747;1256;62164;-48
2023/04/01 05:05:08;;;;;;;14.80;10.60;;;;;;;;;;106380;1253;60341;-48
2023/04/01 05:07:36;;;;;;;12.60;10.80;;;;;;;;;;106262;1254;60882;-49
2023/04/01 05:10:06;;;;;;;13.80;10.50;;;;;;;;;;105899;1256;60450;-49
2023/04/01 05:12:38;;;;;;;14.40;10.50;;;;;;;;;;106015;1251;60593;-50
2023/04/01 05:15:08;;;;;;;14.00;10.50;;;;;;;;;;106328;1256;61795;-48
2023/04/01 05:17:40;;;;;;;12.60;10.30;;;;;;;;;;106795;1254;60328;-49
2023/04/01 05:20:11;;;;;;;14.00;11.20;;;;;;;;;;105842;1253;60489;-49
2023/04/01 05:22:39;;;;;;;14.90;12.60;;;;;;;;;;105789;1256;60432;-49
2023/04/01 05:25:08;;;;;;;16.80;12.50;;;;;;;;;;105616;1257;61341;-50
2023/04/01 05:27:36;;;;;;;15.90;11.80;;;;;;;;;;105753;1251;62126;-49
2023/04/01 05:30:05;;;;;;;16.00;13.70;;;;;;;;;;105632;1257;60476;-49
2023/04/01 05:32:43;;;;;;;19.40;15.60;;;;;;;;;;106815;1252;60528;-49
2023/04/01 05:35:11;;;;;;;13.30;11.40;;;;;;;;;;106799;1250;60529;-50
2023/04/01 05:37:40;;;;;;;15.50;11.10;;;;;;;;;;105740;1252;60539;-49
2023/04/01 05:40:08;;;;;;;13.20;11.00;;;;;;;;;;105587;1260;62287;-48
2023/04/01 05:42:36;;;;;;;16.70;12.70;;;;;;;;;;105802;1256;61720;-48
2023/04/01 05:45:06;;;;;;;11.30;10.20;;;;;;;;;;105753;1251;60662;-48
2023/04/01 05:47:50;;;;;;;16.00;12.30;;;;;;;;;;105723;1255;60431;-50
2023/04/01 05:50:19;;;;;;;14.60;11.60;;;;;;;;;;105526;1251;62867;-47
2023/04/01 05:52:47;;;;;;;15.70;12.00;;;;;;;;;;107357;1251;62118;-47
2023/04/01 05:55:16;;;;;;;13.50;11.50;;;;;;;;;;105557;1253;60498;-49
2023/04/01 05:57:44;;;;;;;15.00;11.40;;;;;;;;;;109252;1251;60731;-51
2023/04/01 06:00:12;;;;;;;16.00;12.10;;;;;;;;;;109241;1251;58512;-50
2023/04/01 06:02:42;;;;;;;16.30;11.40;;;;;;;;;;109291;1251;59984;-50
2023/04/01 06:05:15;;;;;;;11.90;10.70;;;;;;;;;;105998;1254;60810;-50
2023/04/01 06:07:43;;;;;;;15.40;10.80;;;;;;;;;;109200;1253;58342;-50
2023/04/01 06:10:12;;;;;;;13.70;11.50;;;;;;;;;;109234;1253;59843;-50
2023/04/01 06:12:43;;;;;;;15.20;11.70;;;;;;;;;;106208;1253;60454;-50
2023/04/01 06:15:29;;;;;;;13.50;10.60;;;;;;;;;;105461;1253;60560;-47
2023/04/01 06:18:18;;;;;;;14.90;10.70;;;;;;;;;;105339;1257;62311;-46
2023/04/01 06:20:52;;;;;;;12.90;10.00;;;;;;;;;;109192;1253;58326;-51
2023/04/01 06:23:50;;;;;;;13.60;10.10;;;;;;;;;;109215;1253;59830;-50
2023/04/01 06:26:21;;;;;;;13.50;10.20;;;;;;;;;;109149;1253;59316;-50
2023/04/01 06:29:06;;;;;;;12.20;9.90;;;;;;;;;;109171;1254;58284;-51
2023/04/01 06:31:37;;;;;;;14.30;10.40;;;;;;;;;;109148;1256;61955;-50
2023/04/01 06:34:20;;;;;;;11.10;9.80;;;;;;;;;;109041;1253;59115;-50
2023/04/01 06:36:54;;;;;;;11.80;9.10;;;;;;;;;;108875;1253;60094;-51
2023/04/01 06:39:27;;;;;;;13.20;10.90;;;;;;;;;;107809;1253;58118;-50
2023/04/01 06:42:06;;;;;;;12.00;9.40;;;;;;;;;;109111;1253;58139;-50
2023/04/01 06:44:36;;;;;;;10.30;9.30;;;;;;;;;;106617;1256;62455;-50
2023/04/01 06:47:39;;;;;;;11.20;8.50;;;;;;;;;;105537;1256;60403;-50
2023/04/01 06:50:58;;;;;;;11.50;9.10;;;;;;;;;;109049;1253;61091;-50
2023/04/01 06:53:50;;;;;;;9.70;8.10;;;;;;;;;;106440;1253;60479;-50
2023/04/01 06:56:48;;;;;;;11.70;8.90;;;;;;;;;;105441;1253;60460;-49
2023/04/01 06:59:25;;;;;;;10.30;8.40;;;;;;;;;;105695;1254;62249;-50
2023/04/01 07:01:54;;;;;;;9.80;7.80;;;;;;;;;;105902;1254;60873;-49
2023/04/01 07:04:28;;;;;;;11.50;10.10;;;;;;;;;;108891;1256;59334;-50
2023/04/01 07:07:01;;;;;;;9.70;8.20;;;;;;;;;;107319;1253;60292;-49
2023/04/01 07:09:33;;;;;;;9.00;7.90;;;;;;;;;;105671;1251;59617;-49
2023/04/01 07:12:32;;;;;;;8.60;7.80;;;;;;;;;;105620;1251;62175;-50
2023/04/01 07:15:30;;;;;;;11.60;8.30;;;;;;;;;;107670;1256;58888;-50
2023/04/01 07:18:01;;;;;;;8.60;7.70;;;;;;;;;;109154;1251;61006;-53
2023/04/01 07:20:33;;;;;;;9.30;8.40;;;;;;;;;;107659;1251;60450;-50
2023/04/01 07:23:04;;;;;;;8.50;7.60;;;;;;;;;;107486;1253;59004;-51
2023/04/01 07:25:47;;;;;;;8.10;7.20;;;;;;;;;;109078;1251;61906;-51
2023/04/01 07:28:35;;;;;;;9.10;8.20;;;;;;;;;;108142;1254;61244;-50
2023/04/01 07:31:39;;;;;;;9.20;8.40;;;;;;;;;;105657;1256;60460;-51
2023/04/01 07:34:10;;;;;;;10.40;8.40;;;;;;;;;;107556;1255;60491;-52
2023/04/01 07:36:41;;;;;;;13.10;8.80;;;;;;;;;;107417;1255;60440;-48
2023/04/01 07:39:16;;;;;;;10.80;8.60;;;;;;;;;;105409;1254;61992;-50
2023/04/01 07:42:25;;;;;;;8.80;7.90;;;;;;;;;;105543;1256;60427;-51
2023/04/01 07:45:12;;;;;;;11.70;8.50;;;;;;;;;;105446;1257;60530;-51
2023/04/01 07:47:56;;;;;;;11.40;8.70;;;;;;;;;;105893;1255;60571;-51
2023/04/01 07:50:28;;;;;;;10.70;9.30;;;;;;;;;;106084;1256;59780;-51
2023/04/01 07:52:56;;;;;;;11.50;9.80;;;;;;;;;;105521;1251;62049;-48
2023/04/01 07:55:29;;;;;;;14.90;11.50;;;;;;;;;;105738;1256;60379;-50
2023/04/01 07:58:07;;;;;;;12.30;10.60;;;;;;;;;;106251;1251;60718;-49
2023/04/01 08:01:00;;;;;;;14.20;11.50;;;;;;;;;;105501;1253;60502;-51
2023/04/01 08:03:45;;;;;;;19.40;13.40;;;;;;;;;;105651;1251;60478;-49
2023/04/01 08:06:14;;;;;;;18.40;14.50;;;;;;;;;;105734;1259;61878;-49
2023/04/01 08:09:04;;;;;;;20.20;14.00;;;;;;;;;;107547;1254;58380;-47
2023/04/01 08:11:57;;;;;;;22.30;14.60;;;;;;;;;;105681;1257;60764;-50
2023/04/01 08:14:56;;;;;;;26.00;15.40;;;;;;;;;;105450;1256;60419;-49
2023/04/01 08:17:47;;;;;;;23.70;15.10;;;;;;;;;;108273;1254;60409;-51
2023/04/01 08:20:36;;;;;;;25.40;15.60;;;;;;;;;;105422;1255;62323;-49
2023/04/01 08:23:18;;;;;;;24.50;16.60;;;;;;;;;;109078;1253;58697;-50
2023/04/01 08:26:04;;;;;;;28.40;18.30;;;;;;;;;;109077;1253;59525;-50
2023/04/01 08:28:37;;;;;;;27.70;18.30;;;;;;;;;;109056;1253;58511;-49
2023/04/01 08:31:14;;;;;;;27.40;17.80;;;;;;;;;;108894;1259;58538;-50
2023/04/01 08:33:44;;;;;;;28.20;17.80;;;;;;;;;;109123;1253;61234;-49
2023/04/01 08:36:20;;;;;;;34.80;20.80;;;;;;;;;;105620;1259;60680;-50
2023/04/01 08:38:56;;;;;;;28.80;18.30;;;;;;;;;;109032;1253;61266;-50
2023/04/01 08:41:49;;;;;;;22.50;16.00;;;;;;;;;;106180;1257;60408;-50
2023/04/01 08:44:44;;;;;;;31.70;17.40;;;;;;;;;;105895;1258;59533;-50
2023/04/01 08:47:21;;;;;;;25.00;18.10;;;;;;;;;;106139;1253;62145;-49
2023/04/01 08:50:01;;;;;;;29.00;20.50;;;;;;;;;;105583;1256;60441;-50
2023/04/01 08:52:51;;;;;;;27.80;18.90;;;;;;;;;;105536;1258;60839;-50
2023/04/01 08:55:21;;;;;;;22.90;16.60;;;;;;;;;;105480;1258;60367;-50
2023/04/01 08:58:19;;;;;;;24.20;17.20;;;;;;;;;;109130;1253;58725;-50
2023/04/01 09:01:13;;;;;;;24.20;16.80;;;;;;;;;;109115;1253;62036;-49
2023/04/01 09:04:05;;;;;;;21.10;16.30;;;;;;;;;;108948;1253;58558;-48
2023/04/01 09:06:39;;;;;;;25.00;16.70;;;;;;;;;;109067;1253;59463;-49
2023/04/01 09:09:22;;;;;;;21.60;18.20;;;;;;;;;;109188;1254;58071;-48
2023/04/01 09:12:10;;;;;;;23.90;15.40;;;;;;;;;;109188;1253;58205;-50
2023/04/01 09:14:51;;;;;;;21.40;16.20;;;;;;;;;;108995;1258;62419;-49
2023/04/01 09:17:43;;;;;;;29.40;18.20;;;;;;;;;;109059;1253;58906;-49
2023/04/01 09:20:17;;;;;;;25.40;18.30;;;;;;;;;;109102;1253;60994;-50
2023/04/01 09:22:45;;;;;;;28.60;19.50;;;;;;;;;;107346;1254;60467;-51
2023/04/01 09:25:22;;;;;;;19.80;16.80;;;;;;;;;;105540;1259;61127;-48
2023/04/01 09:27:57;;;;;;;21.80;16.10;;;;;;;;;;109266;1253;61993;-48
2023/04/01 09:30:52;;;;;;;19.90;14.90;;;;;;;;;;108999;1253;58698;-49
2023/04/01 09:33:47;;;;;;;18.80;14.90;;;;;;;;;;109091;1253;59507;-49
2023/04/01 09:36:46;;;;;;;13.20;11.40;;;;;;;;;;109104;1253;58284;-49
2023/04/01 09:39:33;;;;;;;12.20;10.90;;;;;;;;;;108939;1253;58553;-49
2023/04/01 09:42:20;;;;;;;14.40;12.10;;;;;;;;;;109086;1253;62373;-48
2023/04/01 09:45:01;;;;;;;13.30;11.90;;;;;;;;;;105586;1258;60454;-50
2023/04/01 09:47:35;;;;;;;15.10;13.20;;;;;;;;;;106410;1257;60947;-50
2023/04/01 09:50:14;;;;;;;12.30;11.10;;;;;;;;;;106534;1256;59115;-50
2023/04/01 09:52:45;;;;;;;8.20;7.20;;;;;;;;;;105902;1253;60467;-48
2023/04/01 09:55:21;;;;;;;6.40;5.90;;;;;;;;;;105547;1254;62349;-49
2023/04/01 09:57:54;;;;;;;5.70;5.20;;;;;;;;;;105459;1258;60425;-50
2023/04/01 10:00:42;;;;;;;5.20;4.30;;;;;;;;;;105569;1253;60602;-49
2023/04/01 10:03:30;;;;;;;5.50;4.40;;;;;;;;;;105767;1259;60275;-49
2023/04/01 10:06:18;;;;;;;5.40;4.20;;;;;;;;;;108784;1253;58256;-50
2023/04/01 10:09:02;;;;;;;3.90;2.90;;;;;;;;;;105838;1258;62720;-49
2023/04/01 10:11:30;;;;;;;6.70;4.70;;;;;;;;;;105652;1258;60661;-47
2023/04/01 10:14:18;;;;;;;5.80;3.50;;;;;;;;;;105460;1258;60359;-48
2023/04/01 10:16:55;;;;;;;4.60;4.10;;;;;;;;;;105655;1259;60532;-46
2023/04/01 10:19:35;;;;;;;3.40;2.70;;;;;;;;;;105621;1253;60642;-49
2023/04/01 10:22:10;;;;;;;3.50;3.30;;;;;;;;;;105714;1254;61168;-50
2023/04/01 10:24:41;;;;;;;5.40;3.20;;;;;;;;;;105729;1259;60421;-49
2023/04/01 10:27:29;;;;;;;3.30;3.00;;;;;;;;;;106133;1257;61184;-47
2023/04/01 10:30:21;;;;;;;5.00;2.60;;;;;;;;;;105778;1256;60473;-51
2023/04/01 10:33:14;;;;;;;2.20;1.70;;;;;;;;;;105694;1260;60438;-50
2023/04/01 10:35:43;;;;;;;3.60;2.10;;;;;;;;;;105945;1253;62862;-48
2023/04/01 10:38:40;;;;;;;4.00;2.60;;;;;;;;;;105676;1259;60296;-50
2023/04/01 10:41:28;;;;;;;3.90;2.20;;;;;;;;;;105754;1258;60365;-50
2023/04/01 10:44:09;;;;;;;3.80;2.80;;;;;;;;;;105700;1257;60540;-49
2023/04/01 10:46:49;;;;;;;4.50;2.50;;;;;;;;;;105644;1253;60313;-51
2023/04/01 10:49:23;;;;;;;2.70;2.40;;;;;;;;;;105664;1254;62193;-50
2023/04/01 10:52:04;;;;;;;3.90;3.50;;;;;;;;;;105837;1258;60283;-49
2023/04/01 10:54:57;;;;;;;4.10;3.00;;;;;;;;;;105728;1253;60487;-49
2023/04/01 10:58:08;;;;;;;3.20;2.80;;;;;;;;;;105446;1260;60588;-49
2023/04/01 11:01:14;;;;;;;4.20;3.90;;;;;;;;;;105448;1254;60485;-49
2023/04/01 11:04:02;;;;;;;4.10;2.90;;;;;;;;;;105488;1254;62190;-49
2023/04/01 11:06:35;;;;;;;3.10;2.50;;;;;;;;;;105662;1251;60523;-50
2023/04/01 11:09:03;;;;;;;2.80;2.60;;;;;;;;;;105762;1256;60865;-49
2023/04/01 11:11:35;;;;;;;2.90;2.50;;;;;;;;;;105838;1255;60530;-49
2023/04/01 11:14:16;;;;;;;2.80;2.30;;;;;;;;;;105958;1259;60342;-48
2023/04/01 11:16:47;;;;;;;4.00;3.10;;;;;;;;;;105730;1252;62432;-51
2023/04/01 11:19:24;;;;;;;4.80;3.20;;;;;;;;;;105723;1260;60423;-48
2023/04/01 11:22:11;;;;;;;2.60;2.40;;;;;;;;;;106246;1256;60504;-50
2023/04/01 11:24:59;;;;;;;3.10;2.90;;;;;;;;;;105735;1256;60472;-51
2023/04/01 11:27:55;;;;;;;6.40;3.30;;;;;;;;;;105675;1251;60575;-50
2023/04/01 11:30:42;;;;;;;3.60;3.20;;;;;;;;;;105590;1251;60933;-50
2023/04/01 11:33:22;;;;;;;6.50;3.90;;;;;;;;;;105554;1258;60312;-50
2023/04/01 11:35:59;;;;;;;5.20;4.80;;;;;;;;;;105641;1251;61144;-52
2023/04/01 11:38:37;;;;;;;3.00;2.70;;;;;;;;;;105775;1259;60494;-49
2023/04/01 11:41:35;;;;;;;3.00;2.20;;;;;;;;;;105735;1256;60444;-47
2023/04/01 11:44:27;;;;;;;2.60;2.40;;;;;;;;;;105778;1251;63378;-49
2023/04/01 11:47:34;;;;;;;2.40;2.10;;;;;;;;;;105642;1259;60796;-50
2023/04/01 11:50:20;;;;;;;3.40;2.40;;;;;;;;;;105839;1257;60856;-48
2023/04/01 11:52:53;;;;;;;4.00;2.40;;;;;;;;;;105668;1257;60530;-50
2023/04/01 11:55:27;;;;;;;2.50;1.40;;;;;;;;;;105863;1256;60399;-47
2023/04/01 11:57:59;;;;;;;3.30;2.60;;;;;;;;;;109327;1251;61722;-51
2023/04/01 12:00:26;;;;;;;1.70;1.50;;;;;;;;;;109347;1251;58408;-51
2023/04/01 12:03:02;;;;;;;3.80;2.70;;;;;;;;;;109356;1254;60500;-51
2023/04/01 12:05:33;;;;;;;2.60;1.10;;;;;;;;;;109301;1251;58272;-51
2023/04/01 12:08:08;;;;;;;2.20;1.40;;;;;;;;;;109390;1251;58521;-51
2023/04/01 12:10:57;;;;;;;1.80;1.20;;;;;;;;;;109371;1251;63006;-51
2023/04/01 12:13:36;;;;;;;2.70;1.80;;;;;;;;;;109343;1251;59332;-48
2023/04/01 12:16:07;;;;;;;1.70;1.10;;;;;;;;;;109316;1251;61014;-49
2023/04/01 12:18:38;;;;;;;2.00;1.10;;;;;;;;;;109290;1251;59078;-48
2023/04/01 12:23:58;;;;;;;4.30;1.30;;;;;;;14.28;100.00;98213.11;102255;1293;600666;-49
2023/04/01 12:26:48;;;;;;;1.50;1.10;;;;;;;14.28;100.00;98225.71;108183;1267;59695;-50
2023/04/01 12:29:48;;;;;;;1.40;1.00;;;;;;;14.28;100.00;98222.95;108230;1267;59629;-50
2023/04/01 12:33:08;;;;;;;2.60;2.40;;;;;;;14.31;100.00;98220.69;108223;1267;72683;-51
2023/04/01 12:35:50;;;;;;;1.60;1.10;;;;;;;14.37;100.00;98215.55;107889;1267;68424;-49
2023/04/01 12:38:22;;;;;;;2.30;1.30;;;;;;;14.44;100.00;98213.91;108226;1264;158357;-50
2023/04/01 12:41:06;;;;;;;2.80;1.00;;;;;;;14.49;100.00;98211.61;107507;1258;59365;-48
2023/04/01 12:43:50;;;;;;;1.50;1.00;;;;;;;14.53;100.00;98208.71;105303;1258;60569;-51
2023/04/01 12:46:54;;;;;;;2.40;1.60;;;;;;;14.55;100.00;98209.27;105044;1256;72502;-49
2023/04/01 12:49:23;;;;;;;3.80;2.50;;;;;;;14.55;100.00;98207.85;105161;1256;68213;-49
2023/04/01 12:52:10;;;;;;;2.50;1.50;;;;;;;14.52;100.00;98206.14;105208;1257;71361;-49
2023/04/01 12:54:48;;;;;;;3.50;1.50;;;;;;;14.48;100.00;98205.39;105310;1257;60584;-47
2023/04/01 12:57:45;;;;;;;4.50;2.10;;;;;;;14.46;100.00;98206.67;106375;1258;60887;-50
2023/04/01 13:00:38;;;;;;;2.20;1.20;;;;;;;14.43;100.00;98206.38;105014;1257;71840;-50
2023/04/01 13:03:15;;;;;;;2.00;1.10;;;;;;;14.40;100.00;98203.73;105200;1260;66233;-50
2023/04/01 13:05:55;;;;;;;2.80;1.00;;;;;;;14.36;100.00;98204.18;105288;1257;72157;-50
2023/04/01 13:08:34;;;;;;;2.90;1.20;;;;;;;14.35;100.00;98200.34;105366;1260;59948;-49
2023/04/01 13:11:16;;;;;;;2.30;1.20;;;;;;;14.35;100.00;98195.52;105334;1260;59718;-48
2023/04/01 13:14:00;;;;;;;2.20;1.20;;;;;;;14.33;100.00;98199.06;104936;1262;75247;-51
2023/04/01 13:16:56;;;;;;;1.20;1.00;;;;;;;14.33;100.00;98196.41;105229;1257;67702;-49
2023/04/01 13:19:36;;;;;;;3.40;1.40;;;;;;;14.29;100.00;98196.19;105209;1257;73040;-48
2023/04/01 13:22:41;;;;;;;1.90;1.40;;;;;;;14.27;100.00;98197.30;105342;1257;59650;-50
2023/04/01 13:25:35;;;;;;;2.30;1.10;;;;;;;14.24;100.00;98198.79;105728;1258;61587;-50
2023/04/01 13:28:20;;;;;;;1.00;0.90;;;;;;;14.21;100.00;98193.66;105478;1257;71960;-47
2023/04/01 13:31:29;;;;;;;1.30;0.90;;;;;;;14.19;100.00;98193.17;105406;1258;66704;-49
2023/04/01 13:34:23;;;;;;;2.20;1.20;;;;;;;14.18;100.00;98192.14;105173;1260;70923;-50
2023/04/01 13:36:54;;;;;;;2.20;1.70;;;;;;;14.17;100.00;98193.85;105135;1261;60446;-49
2023/04/01 13:39:41;;;;;;;2.50;1.40;;;;;;;14.16;100.00;98193.75;105210;1261;59650;-50
2023/04/01 13:42:15;;;;;;;2.70;1.50;;;;;;;14.14;100.00;98196.27;105236;1263;72534;-50
2023/04/01 13:45:02;;;;;;;3.10;1.60;;;;;;;14.11;100.00;98194.42;105179;1257;68131;-50
2023/04/01 13:47:47;;;;;;;2.50;1.30;;;;;;;14.08;100.00;98196.11;105226;1260;72832;-49
2023/04/01 13:50:39;;;;;;;2.30;1.20;;;;;;;14.04;100.00;98197.45;105061;1260;60696;-50
2023/04/01 13:53:22;;;;;;;2.30;1.90;;;;;;;14.00;100.00;98194.21;106198;1259;59764;-48
2023/04/01 13:55:55;;;;;;;2.90;1.30;;;;;;;13.97;100.00;98195.75;105692;1257;71783;-50
2023/04/01 13:58:29;;;;;;;4.20;1.20;;;;;;;13.95;100.00;98193.98;105175;1263;68175;-48
2023/04/01 14:01:10;;;;;;;2.40;1.50;;;;;;;13.93;100.00;98193.77;105346;1257;70316;-50
2023/04/01 14:04:12;;;;;;;2.20;0.90;;;;;;;13.92;100.00;98194.61;105217;1261;60633;-50
2023/04/01 14:06:58;;;;;;;1.30;1.10;;;;;;;13.90;100.00;98193.52;105348;1260;59616;-51
2023/04/01 14:09:57;;;;;;;1.60;0.90;;;;;;;13.87;100.00;98196.61;105564;1258;72530;-49
2023/04/01 14:12:27;;;;;;;1.30;1.20;;;;;;;13.86;100.00;98204.17;105362;1260;67401;-50
2023/04/01 14:15:21;;;;;;;1.20;0.90;;;;;;;13.85;100.00;98199.21;105076;1257;73811;-50
2023/04/01 14:18:17;;;;;;;1.60;0.90;;;;;;;13.82;100.00;98201.40;105249;1260;60683;-50
2023/04/01 14:20:51;;;;;;;1.30;1.20;;;;;;;13.79;100.00;98202.20;105441;1259;60728;-48
2023/04/01 14:23:42;;;;;;;1.30;1.00;;;;;;;13.76;100.00;98204.98;105653;1260;72318;-49
2023/04/01 14:26:24;;;;;;;1.80;1.00;;;;;;;13.73;100.00;98207.61;105330;1257;67807;-50
2023/04/01 14:29:30;;;;;;;2.90;1.20;;;;;;;13.71;100.00;98207.77;106515;1260;72461;-47
2023/04/01 14:32:10;;;;;;;1.60;1.10;;;;;;;13.70;100.00;98208.79;105767;1259;59942;-49
2023/04/01 14:34:55;;;;;;;1.80;1.00;;;;;;;13.68;100.00;98201.59;106954;1257;59676;-49
2023/04/01 14:37:44;;;;;;;3.00;1.70;;;;;;;13.65;100.00;98206.45;105156;1257;74039;-45
2023/04/01 14:40:39;;;;;;;2.20;1.30;;;;;;;13.62;100.00;98207.96;108041;1258;68384;-50